sensor_id;sensor_type;location;lat;lon;timestamp;P1;durP1;ratioP1;P2;durP2;ratioP2
19560;SDS011;9927;47.792;10.616;2022-09-27T03:05:37;4.68;;;4.38;;
19560;SDS011;9927;47.792;10.616;2022-09-27T03:08:20;4.70;;;4.30;;
19560;SDS011;9927;47.792;10.616;2022-09-27T03:10:47;4.93;;;4.60;;
19560;SDS011;9927;47.792;10.616;2022-09-27T03:13:15;4.53;;;4.15;;
19560;SDS011;9927;47.792;10.616;2022-09-27T03:15:42;4.47;;;4.10;;
19560;SDS011;9927;47.792;10.616;2022-09-27T03:18:09;4.68;;;4.30;;
19560;SDS011;9927;47.792;10.616;2022-09-27T03:20:36;8.07;;;4.40;;
19560;SDS011;9927;47.792;10.616;2022-09-27T03:23:04;4.55;;;4.18;;
19560;SDS011;9927;47.792;10.616;2022-09-27T03:25:31;4.70;;;4.40;;
19560;SDS011;9927;47.792;10.616;2022-09-27T03:27:58;3.80;;;3.60;;
19560;SDS011;9927;47.792;10.616;2022-09-27T03:30:25;4.40;;;4.10;;
19560;SDS011;9927;47.792;10.616;2022-09-27T03:32:53;4.72;;;4.15;;
19560;SDS011;9927;47.792;10.616;2022-09-27T03:35:20;4.35;;;4.05;;
19560;SDS011;9927;47.792;10.616;2022-09-27T03:37:47;4.55;;;4.25;;
19560;SDS011;9927;47.792;10.616;2022-09-27T03:40:15;4.78;;;4.45;;
19560;SDS011;9927;47.792;10.616;2022-09-27T03:42:43;4.70;;;4.40;;
19560;SDS011;9927;47.792;10.616;2022-09-27T03:45:15;4.50;;;4.20;;
19560;SDS011;9927;47.792;10.616;2022-09-27T03:47:43;4.38;;;4.10;;
19560;SDS011;9927;47.792;10.616;2022-09-27T03:50:11;4.45;;;4.18;;
19560;SDS011;9927;47.792;10.616;2022-09-27T03:52:38;4.20;;;3.90;;
19560;SDS011;9927;47.792;10.616;2022-09-27T03:55:05;3.92;;;3.72;;
19560;SDS011;9927;47.792;10.616;2022-09-27T03:57:33;4.18;;;3.88;;
19560;SDS011;9927;47.792;10.616;2022-09-27T04:00:00;4.63;;;4.22;;
19560;SDS011;9927;47.792;10.616;2022-09-27T04:02:28;4.53;;;4.13;;
19560;SDS011;9927;47.792;10.616;2022-09-27T04:04:55;4.63;;;4.32;;
19560;SDS011;9927;47.792;10.616;2022-09-27T04:07:23;3.70;;;3.60;;
19560;SDS011;9927;47.792;10.616;2022-09-27T04:09:50;3.90;;;3.70;;
19560;SDS011;9927;47.792;10.616;2022-09-27T04:12:17;4.10;;;3.80;;
19560;SDS011;9927;47.792;10.616;2022-09-27T04:14:44;3.88;;;3.67;;
19560;SDS011;9927;47.792;10.616;2022-09-27T04:17:12;4.10;;;3.80;;
19560;SDS011;9927;47.792;10.616;2022-09-27T04:19:39;3.33;;;3.20;;
19560;SDS011;9927;47.792;10.616;2022-09-27T04:22:06;3.50;;;3.20;;
19560;SDS011;9927;47.792;10.616;2022-09-27T04:24:33;3.00;;;2.80;;
19560;SDS011;9927;47.792;10.616;2022-09-27T04:27:01;3.00;;;2.80;;
19560;SDS011;9927;47.792;10.616;2022-09-27T04:29:28;2.72;;;2.63;;
19560;SDS011;9927;47.792;10.616;2022-09-27T04:31:55;2.92;;;2.80;;
19560;SDS011;9927;47.792;10.616;2022-09-27T04:34:22;3.35;;;3.10;;
19560;SDS011;9927;47.792;10.616;2022-09-27T04:37:11;3.15;;;2.95;;
19560;SDS011;9927;47.792;10.616;2022-09-27T04:39:39;2.40;;;2.40;;
19560;SDS011;9927;47.792;10.616;2022-09-27T04:42:06;3.10;;;2.90;;
19560;SDS011;9927;47.792;10.616;2022-09-27T04:44:34;2.88;;;2.67;;
19560;SDS011;9927;47.792;10.616;2022-09-27T04:47:02;3.22;;;3.00;;
19560;SDS011;9927;47.792;10.616;2022-09-27T04:49:29;3.10;;;2.80;;
19560;SDS011;9927;47.792;10.616;2022-09-27T04:51:56;3.47;;;3.28;;
19560;SDS011;9927;47.792;10.616;2022-09-27T04:54:23;3.00;;;2.90;;
19560;SDS011;9927;47.792;10.616;2022-09-27T04:56:51;2.20;;;2.20;;
19560;SDS011;9927;47.792;10.616;2022-09-27T04:59:18;3.10;;;2.90;;
19560;SDS011;9927;47.792;10.616;2022-09-27T05:01:45;3.08;;;2.88;;
19560;SDS011;9927;47.792;10.616;2022-09-27T05:04:13;3.30;;;3.05;;
19560;SDS011;9927;47.792;10.616;2022-09-27T05:06:41;3.00;;;2.90;;
19560;SDS011;9927;47.792;10.616;2022-09-27T05:09:08;2.80;;;2.70;;
19560;SDS011;9927;47.792;10.616;2022-09-27T05:11:35;2.83;;;2.70;;
19560;SDS011;9927;47.792;10.616;2022-09-27T05:14:04;2.47;;;2.47;;
19560;SDS011;9927;47.792;10.616;2022-09-27T05:16:31;2.80;;;2.70;;
19560;SDS011;9927;47.792;10.616;2022-09-27T05:19:00;3.03;;;2.83;;
19560;SDS011;9927;47.792;10.616;2022-09-27T05:21:27;2.88;;;2.78;;
19560;SDS011;9927;47.792;10.616;2022-09-27T05:23:55;3.58;;;3.33;;
19560;SDS011;9927;47.792;10.616;2022-09-27T05:26:22;3.55;;;3.35;;
19560;SDS011;9927;47.792;10.616;2022-09-27T05:28:49;3.25;;;3.00;;
19560;SDS011;9927;47.792;10.616;2022-09-27T05:31:16;3.38;;;3.00;;
19560;SDS011;9927;47.792;10.616;2022-09-27T05:33:44;2.40;;;2.40;;
19560;SDS011;9927;47.792;10.616;2022-09-27T05:36:11;3.03;;;2.83;;
19560;SDS011;9927;47.792;10.616;2022-09-27T05:38:38;3.08;;;2.78;;
19560;SDS011;9927;47.792;10.616;2022-09-27T05:41:07;2.47;;;2.38;;
19560;SDS011;9927;47.792;10.616;2022-09-27T05:43:35;3.08;;;2.85;;
19560;SDS011;9927;47.792;10.616;2022-09-27T05:46:02;3.00;;;2.85;;
19560;SDS011;9927;47.792;10.616;2022-09-27T05:48:31;2.92;;;2.72;;
19560;SDS011;9927;47.792;10.616;2022-09-27T05:50:58;3.95;;;3.72;;
19560;SDS011;9927;47.792;10.616;2022-09-27T05:53:25;3.42;;;3.13;;
19560;SDS011;9927;47.792;10.616;2022-09-27T05:55:52;2.70;;;2.60;;
19560;SDS011;9927;47.792;10.616;2022-09-27T05:58:20;3.00;;;2.90;;
19560;SDS011;9927;47.792;10.616;2022-09-27T06:00:47;2.70;;;2.60;;
19560;SDS011;9927;47.792;10.616;2022-09-27T06:03:14;3.08;;;2.90;;
19560;SDS011;9927;47.792;10.616;2022-09-27T06:05:42;2.63;;;2.53;;
19560;SDS011;9927;47.792;10.616;2022-09-27T06:08:16;2.50;;;2.40;;
19560;SDS011;9927;47.792;10.616;2022-09-27T06:10:45;3.83;;;2.65;;
19560;SDS011;9927;47.792;10.616;2022-09-27T06:13:14;2.90;;;2.80;;
19560;SDS011;9927;47.792;10.616;2022-09-27T06:15:42;3.00;;;2.80;;
19560;SDS011;9927;47.792;10.616;2022-09-27T06:18:14;2.90;;;2.80;;
19560;SDS011;9927;47.792;10.616;2022-09-27T06:20:43;2.90;;;2.80;;
19560;SDS011;9927;47.792;10.616;2022-09-27T06:23:12;3.22;;;3.03;;
19560;SDS011;9927;47.792;10.616;2022-09-27T06:25:41;3.20;;;3.00;;
19560;SDS011;9927;47.792;10.616;2022-09-27T06:28:09;3.50;;;3.20;;
19560;SDS011;9927;47.792;10.616;2022-09-27T06:30:38;5.53;;;3.30;;
19560;SDS011;9927;47.792;10.616;2022-09-27T06:33:08;2.72;;;2.63;;
19560;SDS011;9927;47.792;10.616;2022-09-27T06:35:38;3.13;;;2.92;;
19560;SDS011;9927;47.792;10.616;2022-09-27T06:38:08;2.75;;;2.65;;
19560;SDS011;9927;47.792;10.616;2022-09-27T06:40:41;2.97;;;2.65;;
19560;SDS011;9927;47.792;10.616;2022-09-27T06:43:13;3.65;;;3.40;;
19560;SDS011;9927;47.792;10.616;2022-09-27T06:45:46;3.08;;;2.90;;
19560;SDS011;9927;47.792;10.616;2022-09-27T06:48:13;4.20;;;3.80;;
19560;SDS011;9927;47.792;10.616;2022-09-27T06:50:43;3.17;;;2.97;;
19560;SDS011;9927;47.792;10.616;2022-09-27T06:53:12;3.40;;;3.13;;
19560;SDS011;9927;47.792;10.616;2022-09-27T06:55:41;5.32;;;3.50;;
19560;SDS011;9927;47.792;10.616;2022-09-27T06:58:09;3.75;;;3.50;;
19560;SDS011;9927;47.792;10.616;2022-09-27T07:00:55;4.30;;;3.90;;
19560;SDS011;9927;47.792;10.616;2022-09-27T07:03:24;4.07;;;3.60;;
19560;SDS011;9927;47.792;10.616;2022-09-27T07:06:07;3.95;;;3.65;;
19560;SDS011;9927;47.792;10.616;2022-09-27T07:08:42;3.30;;;3.10;;
19560;SDS011;9927;47.792;10.616;2022-09-27T07:11:09;3.08;;;2.80;;
19560;SDS011;9927;47.792;10.616;2022-09-27T07:13:36;3.22;;;2.92;;
19560;SDS011;9927;47.792;10.616;2022-09-27T07:16:14;3.70;;;3.17;;
19560;SDS011;9927;47.792;10.616;2022-09-27T07:18:41;3.22;;;2.88;;
19560;SDS011;9927;47.792;10.616;2022-09-27T07:21:09;4.10;;;3.67;;
19560;SDS011;9927;47.792;10.616;2022-09-27T07:23:38;3.40;;;3.10;;
19560;SDS011;9927;47.792;10.616;2022-09-27T07:26:05;3.15;;;2.90;;
19560;SDS011;9927;47.792;10.616;2022-09-27T07:28:33;4.60;;;3.47;;
19560;SDS011;9927;47.792;10.616;2022-09-27T07:31:01;2.75;;;2.65;;
19560;SDS011;9927;47.792;10.616;2022-09-27T07:33:30;2.80;;;2.58;;
19560;SDS011;9927;47.792;10.616;2022-09-27T07:35:57;3.13;;;2.92;;
19560;SDS011;9927;47.792;10.616;2022-09-27T07:38:25;3.30;;;3.00;;
19560;SDS011;9927;47.792;10.616;2022-09-27T07:40:52;3.17;;;2.97;;
19560;SDS011;9927;47.792;10.616;2022-09-27T07:43:20;3.88;;;3.20;;
19560;SDS011;9927;47.792;10.616;2022-09-27T07:45:47;4.47;;;2.97;;
19560;SDS011;9927;47.792;10.616;2022-09-27T07:48:15;3.63;;;3.42;;
19560;SDS011;9927;47.792;10.616;2022-09-27T07:50:42;3.95;;;3.42;;
19560;SDS011;9927;47.792;10.616;2022-09-27T07:53:10;3.03;;;2.83;;
19560;SDS011;9927;47.792;10.616;2022-09-27T07:55:39;2.50;;;2.40;;
19560;SDS011;9927;47.792;10.616;2022-09-27T07:58:08;3.08;;;2.88;;
19560;SDS011;9927;47.792;10.616;2022-09-27T08:00:37;4.18;;;3.10;;
19560;SDS011;9927;47.792;10.616;2022-09-27T08:03:06;2.47;;;2.40;;
19560;SDS011;9927;47.792;10.616;2022-09-27T08:05:42;2.85;;;2.75;;
19560;SDS011;9927;47.792;10.616;2022-09-27T08:08:11;3.20;;;2.90;;
19560;SDS011;9927;47.792;10.616;2022-09-27T08:10:39;4.25;;;2.88;;
19560;SDS011;9927;47.792;10.616;2022-09-27T08:13:10;3.80;;;3.50;;
19560;SDS011;9927;47.792;10.616;2022-09-27T08:15:37;3.00;;;2.90;;
19560;SDS011;9927;47.792;10.616;2022-09-27T08:18:05;3.33;;;3.03;;
19560;SDS011;9927;47.792;10.616;2022-09-27T08:20:35;9.20;;;3.70;;
19560;SDS011;9927;47.792;10.616;2022-09-27T08:23:02;2.92;;;2.75;;
19560;SDS011;9927;47.792;10.616;2022-09-27T08:25:29;2.60;;;2.50;;
19560;SDS011;9927;47.792;10.616;2022-09-27T08:27:58;2.70;;;2.50;;
19560;SDS011;9927;47.792;10.616;2022-09-27T08:30:27;2.63;;;2.53;;
19560;SDS011;9927;47.792;10.616;2022-09-27T08:32:57;2.70;;;2.50;;
19560;SDS011;9927;47.792;10.616;2022-09-27T08:35:25;2.85;;;2.65;;
19560;SDS011;9927;47.792;10.616;2022-09-27T08:37:55;2.70;;;2.50;;
19560;SDS011;9927;47.792;10.616;2022-09-27T08:40:27;2.45;;;2.35;;
19560;SDS011;9927;47.792;10.616;2022-09-27T08:48:48;2.50;;;2.40;;
19560;SDS011;9927;47.792;10.616;2022-09-27T08:51:27;2.47;;;2.38;;
19560;SDS011;9927;47.792;10.616;2022-09-27T08:54:00;2.20;;;2.10;;
19560;SDS011;9927;47.792;10.616;2022-09-27T08:56:33;4.03;;;2.70;;
19560;SDS011;9927;47.792;10.616;2022-09-27T09:01:40;2.20;;;2.13;;
19560;SDS011;9927;47.792;10.616;2022-09-27T09:04:08;2.22;;;2.10;;
19560;SDS011;9927;47.792;10.616;2022-09-27T09:10:38;2.75;;;2.65;;
19560;SDS011;9927;47.792;10.616;2022-09-27T09:13:11;2.38;;;2.28;;
19560;SDS011;9927;47.792;10.616;2022-09-27T09:15:53;2.67;;;2.55;;
19560;SDS011;9927;47.792;10.616;2022-09-27T09:18:46;3.17;;;2.97;;
19560;SDS011;9927;47.792;10.616;2022-09-27T09:26:38;2.95;;;2.70;;
19560;SDS011;9927;47.792;10.616;2022-09-27T09:29:32;2.78;;;2.60;;
19560;SDS011;9927;47.792;10.616;2022-09-27T09:32:29;2.60;;;2.50;;
19560;SDS011;9927;47.792;10.616;2022-09-27T09:35:01;2.03;;;2.03;;
19560;SDS011;9927;47.792;10.616;2022-09-27T09:37:37;2.90;;;2.70;;
19560;SDS011;9927;47.792;10.616;2022-09-27T09:40:22;4.25;;;2.20;;
19560;SDS011;9927;47.792;10.616;2022-09-27T09:43:01;3.97;;;2.60;;
19560;SDS011;9927;47.792;10.616;2022-09-27T09:45:45;3.00;;;2.70;;
19560;SDS011;9927;47.792;10.616;2022-09-27T09:48:50;2.90;;;2.70;;
19560;SDS011;9927;47.792;10.616;2022-09-27T09:51:19;3.53;;;3.22;;
19560;SDS011;9927;47.792;10.616;2022-09-27T09:54:04;2.97;;;2.75;;
19560;SDS011;9927;47.792;10.616;2022-09-27T09:56:40;3.30;;;3.00;;
19560;SDS011;9927;47.792;10.616;2022-09-27T09:59:17;4.15;;;3.75;;
19560;SDS011;9927;47.792;10.616;2022-09-27T10:01:51;3.10;;;2.80;;
19560;SDS011;9927;47.792;10.616;2022-09-27T10:04:25;3.13;;;2.92;;
19560;SDS011;9927;47.792;10.616;2022-09-27T10:06:55;3.33;;;3.13;;
19560;SDS011;9927;47.792;10.616;2022-09-27T10:09:25;3.08;;;2.95;;
19560;SDS011;9927;47.792;10.616;2022-09-27T10:11:54;3.05;;;2.90;;
19560;SDS011;9927;47.792;10.616;2022-09-27T10:14:21;3.72;;;3.42;;
19560;SDS011;9927;47.792;10.616;2022-09-27T10:16:52;3.00;;;2.80;;
19560;SDS011;9927;47.792;10.616;2022-09-27T10:19:32;2.90;;;2.70;;
19560;SDS011;9927;47.792;10.616;2022-09-27T10:22:02;3.25;;;3.05;;
19560;SDS011;9927;47.792;10.616;2022-09-27T10:25:11;4.95;;;3.08;;
19560;SDS011;9927;47.792;10.616;2022-09-27T10:27:38;2.88;;;2.70;;
19560;SDS011;9927;47.792;10.616;2022-09-27T10:33:01;2.75;;;2.65;;
19560;SDS011;9927;47.792;10.616;2022-09-27T10:35:33;2.92;;;2.72;;
19560;SDS011;9927;47.792;10.616;2022-09-27T10:40:47;2.70;;;2.60;;
19560;SDS011;9927;47.792;10.616;2022-09-27T10:43:40;2.88;;;2.78;;
19560;SDS011;9927;47.792;10.616;2022-09-27T10:46:20;2.20;;;2.20;;
19560;SDS011;9927;47.792;10.616;2022-09-27T10:51:54;3.25;;;2.97;;
19560;SDS011;9927;47.792;10.616;2022-09-27T10:54:28;3.60;;;3.30;;
19560;SDS011;9927;47.792;10.616;2022-09-27T10:57:18;3.00;;;2.80;;
19560;SDS011;9927;47.792;10.616;2022-09-27T10:59:55;3.92;;;3.30;;
19560;SDS011;9927;47.792;10.616;2022-09-27T11:02:29;3.60;;;3.40;;
19560;SDS011;9927;47.792;10.616;2022-09-27T11:05:12;3.33;;;3.03;;
19560;SDS011;9927;47.792;10.616;2022-09-27T11:07:54;3.35;;;3.05;;
19560;SDS011;9927;47.792;10.616;2022-09-27T11:10:24;4.40;;;4.10;;
19560;SDS011;9927;47.792;10.616;2022-09-27T11:13:13;6.68;;;4.97;;
19560;SDS011;9927;47.792;10.616;2022-09-27T11:29:19;3.70;;;3.35;;
19560;SDS011;9927;47.792;10.616;2022-09-27T11:32:02;3.70;;;3.40;;
19560;SDS011;9927;47.792;10.616;2022-09-27T11:34:44;3.78;;;3.33;;
19560;SDS011;9927;47.792;10.616;2022-09-27T11:40:01;3.63;;;3.33;;
19560;SDS011;9927;47.792;10.616;2022-09-27T11:45:43;3.63;;;3.30;;
19560;SDS011;9927;47.792;10.616;2022-09-27T11:57:39;4.22;;;3.55;;
19560;SDS011;9927;47.792;10.616;2022-09-27T12:00:12;3.88;;;3.00;;
19560;SDS011;9927;47.792;10.616;2022-09-27T12:05:17;3.22;;;3.03;;
19560;SDS011;9927;47.792;10.616;2022-09-27T12:10:31;4.40;;;3.47;;
19560;SDS011;9927;47.792;10.616;2022-09-27T12:13:01;3.85;;;3.30;;
19560;SDS011;9927;47.792;10.616;2022-09-27T12:15:31;3.10;;;2.90;;
19560;SDS011;9927;47.792;10.616;2022-09-27T12:18:09;3.80;;;3.20;;
19560;SDS011;9927;47.792;10.616;2022-09-27T12:21:05;3.22;;;2.95;;
19560;SDS011;9927;47.792;10.616;2022-09-27T12:26:35;3.25;;;3.05;;
19560;SDS011;9927;47.792;10.616;2022-09-27T12:29:10;4.18;;;2.90;;
19560;SDS011;9927;47.792;10.616;2022-09-27T12:31:53;4.28;;;3.30;;
19560;SDS011;9927;47.792;10.616;2022-09-27T12:34:29;2.80;;;2.70;;
19560;SDS011;9927;47.792;10.616;2022-09-27T12:39:46;3.20;;;3.00;;
19560;SDS011;9927;47.792;10.616;2022-09-27T12:43:01;3.00;;;2.80;;
19560;SDS011;9927;47.792;10.616;2022-09-27T12:45:34;2.80;;;2.60;;
19560;SDS011;9927;47.792;10.616;2022-09-27T12:51:22;3.88;;;3.05;;
19560;SDS011;9927;47.792;10.616;2022-09-27T13:01:47;3.80;;;3.42;;
19560;SDS011;9927;47.792;10.616;2022-09-27T13:07:25;2.30;;;2.20;;
19560;SDS011;9927;47.792;10.616;2022-09-27T13:10:33;4.90;;;2.72;;
19560;SDS011;9927;47.792;10.616;2022-09-27T13:13:11;2.47;;;2.38;;
19560;SDS011;9927;47.792;10.616;2022-09-27T13:15:42;2.85;;;2.65;;
19560;SDS011;9927;47.792;10.616;2022-09-27T13:18:29;2.77;;;2.60;;
19560;SDS011;9927;47.792;10.616;2022-09-27T13:21:04;3.22;;;2.80;;
19560;SDS011;9927;47.792;10.616;2022-09-27T13:31:14;2.15;;;2.00;;
19560;SDS011;9927;47.792;10.616;2022-09-27T13:41:23;2.95;;;2.75;;
19560;SDS011;9927;47.792;10.616;2022-09-27T13:44:05;2.88;;;2.78;;
19560;SDS011;9927;47.792;10.616;2022-09-27T13:46:35;3.20;;;2.90;;
19560;SDS011;9927;47.792;10.616;2022-09-27T13:49:34;3.10;;;2.90;;
19560;SDS011;9927;47.792;10.616;2022-09-27T13:54:59;3.03;;;2.83;;
19560;SDS011;9927;47.792;10.616;2022-09-27T14:00:36;3.33;;;3.00;;
19560;SDS011;9927;47.792;10.616;2022-09-27T14:05:39;3.10;;;2.80;;
19560;SDS011;9927;47.792;10.616;2022-09-27T14:11:12;3.30;;;3.03;;
19560;SDS011;9927;47.792;10.616;2022-09-27T14:13:43;3.83;;;3.53;;
19560;SDS011;9927;47.792;10.616;2022-09-27T14:16:13;3.50;;;3.20;;
19560;SDS011;9927;47.792;10.616;2022-09-27T14:18:44;3.33;;;3.13;;
19560;SDS011;9927;47.792;10.616;2022-09-27T14:21:33;3.40;;;3.20;;
19560;SDS011;9927;47.792;10.616;2022-09-27T14:26:49;3.30;;;3.00;;
19560;SDS011;9927;47.792;10.616;2022-09-27T14:29:30;3.30;;;3.00;;
19560;SDS011;9927;47.792;10.616;2022-09-27T14:32:04;2.95;;;2.75;;
19560;SDS011;9927;47.792;10.616;2022-09-27T14:34:35;4.20;;;3.20;;
19560;SDS011;9927;47.792;10.616;2022-09-27T14:37:02;3.25;;;2.95;;
19560;SDS011;9927;47.792;10.616;2022-09-27T14:39:52;3.13;;;2.67;;
19560;SDS011;9927;47.792;10.616;2022-09-27T14:42:33;3.17;;;2.85;;
19560;SDS011;9927;47.792;10.616;2022-09-27T14:45:04;2.90;;;2.80;;
19560;SDS011;9927;47.792;10.616;2022-09-27T14:47:46;3.20;;;2.90;;
19560;SDS011;9927;47.792;10.616;2022-09-27T14:52:45;3.72;;;3.42;;
19560;SDS011;9927;47.792;10.616;2022-09-27T14:55:16;3.50;;;3.25;;
19560;SDS011;9927;47.792;10.616;2022-09-27T14:57:51;2.30;;;2.20;;
19560;SDS011;9927;47.792;10.616;2022-09-27T15:00:23;3.42;;;3.00;;
19560;SDS011;9927;47.792;10.616;2022-09-27T15:02:52;2.92;;;2.72;;
19560;SDS011;9927;47.792;10.616;2022-09-27T15:05:23;2.97;;;2.83;;
19560;SDS011;9927;47.792;10.616;2022-09-27T15:07:52;3.85;;;3.55;;
19560;SDS011;9927;47.792;10.616;2022-09-27T15:10:24;3.22;;;3.00;;
19560;SDS011;9927;47.792;10.616;2022-09-27T15:12:54;3.25;;;2.95;;
19560;SDS011;9927;47.792;10.616;2022-09-27T15:15:26;3.97;;;3.58;;
19560;SDS011;9927;47.792;10.616;2022-09-27T15:18:31;4.32;;;3.83;;
19560;SDS011;9927;47.792;10.616;2022-09-27T15:21:00;5.07;;;3.97;;
19560;SDS011;9927;47.792;10.616;2022-09-27T15:23:28;4.05;;;3.72;;
19560;SDS011;9927;47.792;10.616;2022-09-27T15:28:44;3.95;;;3.65;;
19560;SDS011;9927;47.792;10.616;2022-09-27T15:31:13;4.17;;;3.77;;
19560;SDS011;9927;47.792;10.616;2022-09-27T15:33:41;5.57;;;5.07;;
19560;SDS011;9927;47.792;10.616;2022-09-27T15:36:18;3.20;;;3.00;;
19560;SDS011;9927;47.792;10.616;2022-09-27T15:39:19;3.90;;;3.60;;
19560;SDS011;9927;47.792;10.616;2022-09-27T15:44:38;4.07;;;3.78;;
19560;SDS011;9927;47.792;10.616;2022-09-27T15:52:45;3.40;;;3.20;;
19560;SDS011;9927;47.792;10.616;2022-09-27T15:55:18;3.80;;;3.50;;
19560;SDS011;9927;47.792;10.616;2022-09-27T15:58:06;3.83;;;3.40;;
19560;SDS011;9927;47.792;10.616;2022-09-27T16:00:51;5.50;;;4.13;;
19560;SDS011;9927;47.792;10.616;2022-09-27T16:03:21;6.78;;;5.20;;
19560;SDS011;9927;47.792;10.616;2022-09-27T16:05:50;5.68;;;5.07;;
19560;SDS011;9927;47.792;10.616;2022-09-27T16:08:17;5.40;;;4.50;;
19560;SDS011;9927;47.792;10.616;2022-09-27T16:10:46;7.72;;;5.03;;
19560;SDS011;9927;47.792;10.616;2022-09-27T16:13:15;6.53;;;5.57;;
19560;SDS011;9927;47.792;10.616;2022-09-27T16:15:43;5.10;;;4.30;;
19560;SDS011;9927;47.792;10.616;2022-09-27T16:18:12;5.00;;;4.60;;
19560;SDS011;9927;47.792;10.616;2022-09-27T16:20:39;5.60;;;4.50;;
19560;SDS011;9927;47.792;10.616;2022-09-27T16:23:06;4.28;;;3.95;;
19560;SDS011;9927;47.792;10.616;2022-09-27T16:25:33;3.67;;;3.45;;
19560;SDS011;9927;47.792;10.616;2022-09-27T16:28:01;3.50;;;3.20;;
19560;SDS011;9927;47.792;10.616;2022-09-27T16:30:30;4.40;;;3.70;;
19560;SDS011;9927;47.792;10.616;2022-09-27T16:32:58;3.95;;;2.85;;
19560;SDS011;9927;47.792;10.616;2022-09-27T16:35:25;3.85;;;3.45;;
19560;SDS011;9927;47.792;10.616;2022-09-27T16:37:53;4.20;;;3.80;;
19560;SDS011;9927;47.792;10.616;2022-09-27T16:40:21;3.93;;;3.53;;
19560;SDS011;9927;47.792;10.616;2022-09-27T16:42:48;2.95;;;2.80;;
19560;SDS011;9927;47.792;10.616;2022-09-27T16:45:16;4.28;;;3.58;;
19560;SDS011;9927;47.792;10.616;2022-09-27T16:47:45;3.13;;;2.92;;
19560;SDS011;9927;47.792;10.616;2022-09-27T16:50:13;3.10;;;2.90;;
19560;SDS011;9927;47.792;10.616;2022-09-27T16:53:00;3.45;;;3.22;;
19560;SDS011;9927;47.792;10.616;2022-09-27T16:55:27;4.18;;;3.97;;
19560;SDS011;9927;47.792;10.616;2022-09-27T16:57:57;4.30;;;3.90;;
19560;SDS011;9927;47.792;10.616;2022-09-27T17:00:25;6.60;;;6.00;;
19560;SDS011;9927;47.792;10.616;2022-09-27T17:02:53;6.40;;;5.80;;
19560;SDS011;9927;47.792;10.616;2022-09-27T17:05:20;4.80;;;4.45;;
19560;SDS011;9927;47.792;10.616;2022-09-27T17:07:52;4.03;;;3.67;;
19560;SDS011;9927;47.792;10.616;2022-09-27T17:10:20;3.58;;;3.35;;
19560;SDS011;9927;47.792;10.616;2022-09-27T17:12:48;3.80;;;3.60;;
19560;SDS011;9927;47.792;10.616;2022-09-27T17:15:16;4.07;;;3.70;;
19560;SDS011;9927;47.792;10.616;2022-09-27T17:17:47;4.50;;;4.20;;
19560;SDS011;9927;47.792;10.616;2022-09-27T17:20:14;3.88;;;3.67;;
19560;SDS011;9927;47.792;10.616;2022-09-27T17:22:42;4.05;;;3.85;;
19560;SDS011;9927;47.792;10.616;2022-09-27T17:25:09;4.50;;;4.10;;
19560;SDS011;9927;47.792;10.616;2022-09-27T17:27:36;7.03;;;5.68;;
19560;SDS011;9927;47.792;10.616;2022-09-27T17:30:03;6.60;;;6.00;;
19560;SDS011;9927;47.792;10.616;2022-09-27T17:32:32;3.97;;;3.67;;
19560;SDS011;9927;47.792;10.616;2022-09-27T17:35:00;3.77;;;3.40;;
19560;SDS011;9927;47.792;10.616;2022-09-27T17:37:28;3.67;;;3.30;;
19560;SDS011;9927;47.792;10.616;2022-09-27T17:39:55;3.17;;;2.97;;
19560;SDS011;9927;47.792;10.616;2022-09-27T17:42:23;3.40;;;3.20;;
19560;SDS011;9927;47.792;10.616;2022-09-27T17:44:51;9.02;;;6.70;;
19560;SDS011;9927;47.792;10.616;2022-09-27T17:47:18;3.37;;;3.07;;
19560;SDS011;9927;47.792;10.616;2022-09-27T17:50:04;3.17;;;2.97;;
19560;SDS011;9927;47.792;10.616;2022-09-27T17:52:50;2.67;;;2.57;;
19560;SDS011;9927;47.792;10.616;2022-09-27T17:55:19;3.22;;;2.88;;
19560;SDS011;9927;47.792;10.616;2022-09-27T17:57:47;2.40;;;2.30;;
19560;SDS011;9927;47.792;10.616;2022-09-27T18:00:15;3.17;;;2.87;;
19560;SDS011;9927;47.792;10.616;2022-09-27T18:02:44;2.75;;;2.55;;
19560;SDS011;9927;47.792;10.616;2022-09-27T18:05:11;2.95;;;2.75;;
19560;SDS011;9927;47.792;10.616;2022-09-27T18:07:38;2.80;;;2.60;;
19560;SDS011;9927;47.792;10.616;2022-09-27T18:10:06;3.13;;;2.85;;
19560;SDS011;9927;47.792;10.616;2022-09-27T18:12:33;2.97;;;2.73;;
19560;SDS011;9927;47.792;10.616;2022-09-27T18:15:01;2.58;;;2.47;;
19560;SDS011;9927;47.792;10.616;2022-09-27T18:17:28;6.93;;;3.65;;
19560;SDS011;9927;47.792;10.616;2022-09-27T18:19:56;3.10;;;2.70;;
19560;SDS011;9927;47.792;10.616;2022-09-27T18:22:27;3.53;;;3.10;;
19560;SDS011;9927;47.792;10.616;2022-09-27T18:24:57;2.90;;;2.70;;
19560;SDS011;9927;47.792;10.616;2022-09-27T18:27:24;5.25;;;3.08;;
19560;SDS011;9927;47.792;10.616;2022-09-27T18:29:51;3.40;;;3.20;;
19560;SDS011;9927;47.792;10.616;2022-09-27T18:32:19;3.50;;;3.20;;
19560;SDS011;9927;47.792;10.616;2022-09-27T18:34:46;5.10;;;4.60;;
19560;SDS011;9927;47.792;10.616;2022-09-27T18:37:13;10.80;;;6.60;;
19560;SDS011;9927;47.792;10.616;2022-09-27T18:39:41;11.57;;;7.57;;
19560;SDS011;9927;47.792;10.616;2022-09-27T18:42:08;9.77;;;6.17;;
19560;SDS011;9927;47.792;10.616;2022-09-27T18:44:35;9.07;;;6.25;;
19560;SDS011;9927;47.792;10.616;2022-09-27T18:47:02;6.15;;;4.82;;
19560;SDS011;9927;47.792;10.616;2022-09-27T18:49:29;4.47;;;4.10;;
19560;SDS011;9927;47.792;10.616;2022-09-27T18:51:59;3.20;;;3.00;;
19560;SDS011;9927;47.792;10.616;2022-09-27T18:54:28;3.33;;;3.10;;
19560;SDS011;9927;47.792;10.616;2022-09-27T18:56:55;2.90;;;2.70;;
19560;SDS011;9927;47.792;10.616;2022-09-27T18:59:22;4.13;;;3.30;;
19560;SDS011;9927;47.792;10.616;2022-09-27T19:01:50;3.38;;;3.10;;
19560;SDS011;9927;47.792;10.616;2022-09-27T19:04:18;3.08;;;2.80;;
19560;SDS011;9927;47.792;10.616;2022-09-27T19:06:52;3.40;;;3.20;;
19560;SDS011;9927;47.792;10.616;2022-09-27T19:09:21;6.18;;;3.85;;
19560;SDS011;9927;47.792;10.616;2022-09-27T19:11:48;3.03;;;2.83;;
19560;SDS011;9927;47.792;10.616;2022-09-27T19:14:17;3.00;;;2.78;;
19560;SDS011;9927;47.792;10.616;2022-09-27T19:16:45;2.90;;;2.70;;
19560;SDS011;9927;47.792;10.616;2022-09-27T19:19:15;2.92;;;2.72;;
19560;SDS011;9927;47.792;10.616;2022-09-27T19:21:43;2.80;;;2.60;;
19560;SDS011;9927;47.792;10.616;2022-09-27T19:24:11;3.70;;;3.37;;
19560;SDS011;9927;47.792;10.616;2022-09-27T19:26:39;2.97;;;2.77;;
19560;SDS011;9927;47.792;10.616;2022-09-27T19:29:07;2.95;;;2.83;;
19560;SDS011;9927;47.792;10.616;2022-09-27T19:31:34;2.90;;;2.70;;
19560;SDS011;9927;47.792;10.616;2022-09-27T19:34:03;3.28;;;3.08;;
19560;SDS011;9927;47.792;10.616;2022-09-27T19:36:30;3.00;;;2.80;;
19560;SDS011;9927;47.792;10.616;2022-09-27T19:38:57;3.17;;;2.97;;
19560;SDS011;9927;47.792;10.616;2022-09-27T19:41:25;2.45;;;2.42;;
19560;SDS011;9927;47.792;10.616;2022-09-27T19:43:53;2.92;;;2.72;;
19560;SDS011;9927;47.792;10.616;2022-09-27T19:46:22;2.78;;;2.67;;
19560;SDS011;9927;47.792;10.616;2022-09-27T19:48:50;3.03;;;2.83;;
19560;SDS011;9927;47.792;10.616;2022-09-27T19:51:19;3.20;;;3.00;;
19560;SDS011;9927;47.792;10.616;2022-09-27T19:53:48;4.25;;;3.30;;
19560;SDS011;9927;47.792;10.616;2022-09-27T19:56:16;3.50;;;3.20;;
19560;SDS011;9927;47.792;10.616;2022-09-27T19:58:44;3.13;;;2.92;;
19560;SDS011;9927;47.792;10.616;2022-09-27T20:01:12;3.10;;;3.00;;
19560;SDS011;9927;47.792;10.616;2022-09-27T20:03:42;3.67;;;3.40;;
19560;SDS011;9927;47.792;10.616;2022-09-27T20:06:11;3.35;;;3.05;;
19560;SDS011;9927;47.792;10.616;2022-09-27T20:08:40;3.13;;;2.78;;
19560;SDS011;9927;47.792;10.616;2022-09-27T20:11:09;3.00;;;2.80;;
19560;SDS011;9927;47.792;10.616;2022-09-27T20:13:38;2.60;;;2.60;;
19560;SDS011;9927;47.792;10.616;2022-09-27T20:16:13;2.70;;;2.60;;
19560;SDS011;9927;47.792;10.616;2022-09-27T20:18:46;2.72;;;2.60;;
19560;SDS011;9927;47.792;10.616;2022-09-27T20:21:15;3.40;;;3.10;;